• Join FlightAware (Why Join?)
  • Login
  • US Flag 
 
08:56PM EST


 

Airport Tracker/Info


-or-


 

Live Flight TrackerFlight Track Log ✈ N1158D ✈ 10-Jul-2013 ✈ KCMH - 3W2

Flight Track Log - Related Links

Times and Time Zones

All times are in EDT time to prevent confusion due to time zone crossing. See the N1158D flight status page for this flight to view local times or setup timezone preferences in your user account.

Time Position Orientation Groundspeed Altitude Reporting Facility
EDT Latitude Longitude Course Direction KTS MPH feet Rate Location/Type
06:08PM 39.9969 -82.8981 345° North 79 91 1,000  Level Indianapolis Center
06:09PM 40.0133 -82.9036 345° North 71 82 1,700 780 Climbing Indianapolis Center
06:10PM 40.0322 -82.9011 North 66 76 2,500 480 Climbing Indianapolis Center
06:11PM 40.0556 -82.8994 North 93 107 2,800 180 Climbing Indianapolis Center
06:12PM 40.0850 -82.8986 North 125 144 2,900  Climbing Indianapolis Center
06:13PM 40.1189 -82.8958 North 133 153 2,900  Level Indianapolis Center
06:15PM 40.1611 -82.8944 North 129 148 2,900  Level Indianapolis Center
06:15PM 40.1950 -82.8917 North 127 146 2,900 -60 Level Indianapolis Center
06:16PM 40.2267 -82.8883 North 126 145 2,800 -120 Descending Indianapolis Center
06:17PM 40.2400 -82.8856 North 126 145 2,800  Level Indianapolis Center
06:17PM 40.2628 -82.8858 359° North 127 146 2,800  Level Indianapolis Center
06:18PM 40.2753 -82.8836 North 125 144 2,800  Level Indianapolis Center
06:18PM 40.2967 -82.8831 North 127 146 2,800  Level Indianapolis Center
06:19PM 40.3122 -82.8800 North 128 147 2,800 60 Level Indianapolis Center
06:20PM 40.3478 -82.8772 North 128 147 2,900  Climbing Indianapolis Center
06:21PM 40.3883 -82.8747 North 126 145 2,800  Descending Indianapolis Center
06:22PM 40.4217 -82.8722 North 122 140 2,900 60 Climbing Indianapolis Center
06:23PM 40.4536 -82.8692 North 118 136 3,000  Climbing Indianapolis Center
06:24PM 40.4869 -82.8667 North 118 136 2,900 -60 Descending Indianapolis Center
06:25PM 40.5231 -82.8661 North 124 143 2,900  Level Indianapolis Center
06:26PM 40.5594 -82.8625 North 129 148 3,000  Climbing Indianapolis Center
06:27PM 40.5947 -82.8600 North 128 147 2,900 -60 Descending Indianapolis Center
06:28PM 40.6306 -82.8581 North 128 147 2,900  Level Indianapolis Center
06:29PM 40.6664 -82.8558 North 128 147 3,000  Climbing Indianapolis Center
06:31PM 40.7113 -82.8543 North  Level FlightAware Approximate
06:31PM 40.7378 -82.8528 North 125 144 2,900  Level Indianapolis Center
06:32PM 40.7739 -82.8503 North 127 146 2,900 -60 Level Indianapolis Center
06:33PM 40.8089 -82.8467 North 125 144 2,800 -120 Descending Indianapolis Center